createdAt,value
2022-12-20T00:01:33.615Z,7.80
2022-12-20T00:04:20.568Z,7.63
2022-12-20T00:07:07.588Z,7.53
2022-12-20T00:09:54.603Z,7.87
2022-12-20T00:12:41.610Z,8.33
2022-12-20T00:15:28.557Z,8.10
2022-12-20T00:18:15.561Z,8.97
2022-12-20T00:21:04.662Z,8.67
2022-12-20T00:23:52.934Z,8.07
2022-12-20T00:26:39.946Z,7.80
2022-12-20T00:29:26.922Z,7.70
2022-12-20T00:32:13.832Z,7.20
2022-12-20T00:35:00.777Z,7.97
2022-12-20T00:37:47.761Z,7.63
2022-12-20T00:40:34.789Z,7.90
2022-12-20T00:43:22.128Z,7.20
2022-12-20T00:46:10.654Z,7.70
2022-12-20T00:48:57.794Z,7.07
2022-12-20T00:51:44.852Z,8.00
2022-12-20T00:54:31.788Z,7.50
2022-12-20T00:57:18.744Z,7.57
2022-12-20T01:00:07.163Z,6.87
2022-12-20T01:02:54.349Z,6.77
2022-12-20T01:05:50.531Z,7.00
2022-12-20T01:08:37.763Z,7.53
2022-12-20T01:11:30.099Z,7.27
2022-12-20T01:14:17.098Z,6.70
2022-12-20T01:17:04.064Z,6.57
2022-12-20T01:19:51.131Z,7.60
2022-12-20T01:22:42.478Z,7.10
2022-12-20T01:25:34.231Z,6.53
2022-12-20T01:28:21.148Z,6.73
2022-12-20T01:31:13.899Z,6.33
2022-12-20T01:34:01.156Z,7.40
2022-12-20T01:36:49.662Z,5.90
2022-12-20T01:39:36.958Z,7.00
2022-12-20T01:42:23.994Z,7.10
2022-12-20T01:45:20.657Z,7.33
2022-12-20T01:48:07.850Z,7.33
2022-12-20T01:50:54.899Z,7.50
2022-12-20T01:53:42.089Z,7.57
2022-12-20T01:56:29.336Z,7.47
2022-12-20T01:59:16.632Z,7.20
2022-12-20T02:02:07.888Z,7.40
2022-12-20T02:04:55.136Z,6.40
2022-12-20T02:07:46.097Z,6.37
2022-12-20T02:10:59.397Z,6.50
2022-12-20T02:13:59.693Z,6.77
2022-12-20T02:17:15.576Z,6.63
2022-12-20T02:20:27.014Z,6.63
2022-12-20T02:23:22.314Z,6.20
2022-12-20T02:26:24.233Z,6.77
2022-12-20T02:30:14.433Z,6.60
2022-12-20T02:33:04.414Z,6.10
2022-12-20T02:35:51.339Z,6.50
2022-12-20T02:38:38.893Z,6.40
2022-12-20T02:41:43.048Z,6.20
2022-12-20T02:44:51.468Z,6.53
2022-12-20T02:47:48.063Z,6.73
2022-12-20T02:50:51.717Z,5.97
2022-12-20T02:53:42.763Z,5.80
2022-12-20T02:56:38.824Z,5.70
2022-12-20T02:59:36.756Z,5.60
2022-12-20T03:02:25.303Z,6.13
2022-12-20T03:05:12.696Z,5.40
2022-12-20T03:07:59.827Z,5.13
2022-12-20T03:10:47.284Z,5.43
2022-12-20T03:13:34.239Z,5.40
2022-12-20T03:16:22.215Z,6.07
2022-12-20T03:19:09.297Z,5.47
2022-12-20T03:21:56.271Z,5.23
2022-12-20T03:24:43.194Z,5.53
2022-12-20T03:27:30.291Z,5.43
2022-12-20T03:30:17.296Z,5.83
2022-12-20T03:33:04.448Z,5.37
2022-12-20T03:35:51.496Z,5.60
2022-12-20T03:38:38.465Z,5.37
2022-12-20T03:41:26.255Z,6.00
2022-12-20T03:44:13.263Z,5.30
2022-12-20T03:47:00.190Z,5.30
2022-12-20T03:49:47.223Z,5.40
2022-12-20T03:52:34.359Z,5.53
2022-12-20T03:55:21.302Z,5.73
2022-12-20T03:58:08.221Z,5.40
2022-12-20T04:00:57.189Z,6.30
2022-12-20T04:03:44.212Z,6.40
2022-12-20T04:06:31.800Z,7.23
2022-12-20T04:09:18.815Z,7.10
2022-12-20T04:12:06.266Z,6.63
2022-12-20T04:14:53.213Z,6.17
2022-12-20T04:17:40.347Z,6.73
2022-12-20T04:20:27.349Z,6.97
2022-12-20T04:23:14.321Z,6.77
2022-12-20T04:26:02.704Z,7.07
2022-12-20T04:28:49.765Z,7.23
2022-12-20T04:31:36.826Z,6.60
2022-12-20T04:34:23.875Z,6.83
2022-12-20T04:37:10.824Z,6.80
2022-12-20T04:39:58.467Z,7.57
2022-12-20T04:42:45.392Z,8.20
2022-12-20T04:45:32.411Z,8.23
2022-12-20T04:48:55.090Z,8.50
2022-12-20T04:51:28.584Z,8.57
2022-12-20T04:54:15.566Z,10.33
2022-12-20T04:57:02.517Z,9.80
2022-12-20T04:59:49.435Z,9.27
2022-12-20T05:02:36.648Z,9.47
2022-12-20T05:05:23.849Z,9.80
2022-12-20T05:08:11.638Z,9.97
2022-12-20T05:10:58.781Z,9.47
2022-12-20T05:13:45.765Z,10.37
2022-12-20T05:16:32.876Z,10.03
2022-12-20T05:19:19.914Z,9.83
2022-12-20T05:22:25.391Z,10.53
2022-12-20T05:25:31.632Z,10.87
2022-12-20T05:28:18.563Z,10.90
2022-12-20T05:31:05.785Z,11.13
2022-12-20T05:33:52.842Z,11.70
2022-12-20T05:36:39.825Z,11.63
2022-12-20T05:39:27.386Z,12.43
2022-12-20T05:42:14.707Z,13.87
2022-12-20T05:45:01.686Z,14.13
2022-12-20T05:47:48.634Z,13.83
2022-12-20T05:50:35.563Z,15.20
2022-12-20T05:53:22.720Z,13.87
2022-12-20T05:56:09.651Z,13.93
2022-12-20T05:58:57.093Z,15.10
2022-12-20T06:01:44.203Z,14.03
2022-12-20T06:04:32.360Z,14.23
2022-12-20T06:07:19.940Z,14.27
2022-12-20T06:10:07.879Z,13.27
2022-12-20T06:12:54.833Z,13.83
2022-12-20T06:15:41.746Z,13.87
2022-12-20T06:18:28.860Z,14.63
2022-12-20T06:21:16.192Z,13.97
2022-12-20T06:24:03.475Z,13.30
2022-12-20T06:26:50.398Z,14.07
2022-12-20T06:29:37.685Z,14.17
2022-12-20T06:32:24.650Z,13.80
2022-12-20T06:35:11.669Z,13.70
2022-12-20T06:37:58.634Z,13.40
2022-12-20T06:40:45.625Z,13.20
2022-12-20T06:43:32.683Z,14.37
2022-12-20T06:46:19.663Z,13.43
2022-12-20T06:49:06.741Z,13.73
2022-12-20T06:51:53.697Z,13.20
2022-12-20T06:54:40.706Z,12.90
2022-12-20T06:57:27.719Z,12.87
2022-12-20T07:00:15.440Z,13.67
2022-12-20T07:03:02.626Z,12.90
2022-12-20T07:05:53.575Z,12.00
2022-12-20T07:08:40.531Z,12.53
2022-12-20T07:11:27.592Z,10.97
2022-12-20T07:14:14.661Z,11.03
2022-12-20T07:17:01.788Z,10.77
2022-12-20T07:19:51.187Z,10.23
2022-12-20T07:22:38.478Z,10.47
2022-12-20T07:25:25.731Z,14.57
2022-12-20T07:28:13.019Z,15.93
2022-12-20T07:31:03.532Z,17.40
2022-12-20T07:33:51.175Z,13.93
2022-12-20T07:36:38.285Z,9.77
2022-12-20T07:39:25.705Z,8.77
2022-12-20T07:42:12.816Z,9.63
2022-12-20T07:45:00.043Z,9.63
2022-12-20T07:47:47.093Z,10.40
2022-12-20T07:50:36.204Z,9.27
2022-12-20T07:53:25.700Z,10.40
2022-12-20T07:56:15.303Z,10.43
2022-12-20T07:59:04.185Z,10.53
2022-12-20T08:01:51.652Z,10.90
2022-12-20T08:04:39.990Z,10.53
2022-12-20T08:07:29.748Z,10.47
2022-12-20T08:10:19.867Z,11.37
2022-12-20T08:13:07.965Z,11.00
2022-12-20T08:15:55.159Z,10.50
2022-12-20T08:18:42.361Z,11.07
2022-12-20T08:21:30.745Z,12.23
2022-12-20T08:24:17.798Z,11.83
2022-12-20T08:27:04.808Z,12.07
2022-12-20T08:29:51.890Z,11.80
2022-12-20T08:32:38.950Z,12.47
2022-12-20T08:35:26.089Z,13.07
2022-12-20T08:38:13.734Z,12.17
2022-12-20T08:41:05.256Z,12.23
2022-12-20T08:43:52.284Z,12.50
2022-12-20T08:46:39.440Z,12.07
2022-12-20T08:49:26.581Z,11.53
2022-12-20T08:52:13.626Z,12.13
2022-12-20T08:55:01.900Z,12.90
2022-12-20T08:57:49.387Z,12.50
2022-12-20T09:00:37.208Z,12.63
2022-12-20T09:03:24.227Z,12.90
2022-12-20T09:06:18.396Z,12.00
2022-12-20T09:09:07.123Z,13.00
2022-12-20T09:11:54.407Z,12.47
2022-12-20T09:14:42.211Z,12.63
2022-12-20T09:17:30.173Z,11.83
2022-12-20T09:20:17.260Z,11.47
2022-12-20T09:23:04.403Z,11.10
2022-12-20T09:25:53.990Z,11.17
2022-12-20T09:28:42.424Z,11.03
2022-12-20T09:31:29.554Z,11.27
2022-12-20T09:34:16.829Z,10.87
2022-12-20T09:37:03.823Z,10.33
2022-12-20T09:39:51.725Z,12.40
2022-12-20T09:42:38.805Z,11.10
2022-12-20T09:45:29.726Z,11.53
2022-12-20T09:48:20.424Z,11.57
2022-12-20T09:51:10.619Z,11.10
2022-12-20T09:54:31.461Z,11.13
2022-12-20T09:57:27.871Z,11.00
2022-12-20T10:00:17.579Z,11.43
2022-12-20T10:03:10.517Z,11.87
2022-12-20T10:06:13.941Z,11.40
2022-12-20T10:09:04.659Z,10.93
2022-12-20T10:12:19.643Z,11.13
2022-12-20T10:15:26.770Z,10.40
2022-12-20T10:18:43.017Z,10.60
2022-12-20T10:21:51.708Z,10.87
2022-12-20T10:24:41.346Z,10.13
2022-12-20T10:27:28.432Z,9.40
2022-12-20T10:30:18.228Z,9.13
2022-12-20T10:33:05.252Z,8.80
2022-12-20T10:35:52.498Z,8.77
2022-12-20T10:38:50.820Z,8.60
2022-12-20T10:41:40.494Z,8.57
2022-12-20T10:44:29.943Z,7.93
2022-12-20T10:47:40.617Z,8.47
2022-12-20T10:50:28.074Z,8.00
2022-12-20T10:53:24.260Z,7.20
2022-12-20T10:56:12.206Z,7.17
2022-12-20T10:59:17.813Z,7.00
2022-12-20T11:02:34.990Z,6.80
2022-12-20T11:05:26.744Z,5.87
2022-12-20T11:08:36.213Z,6.27
2022-12-20T11:11:25.185Z,6.60
2022-12-20T11:14:16.217Z,6.00
2022-12-20T11:17:43.762Z,6.07
2022-12-20T11:20:53.131Z,5.90
2022-12-20T11:24:24.151Z,5.83
2022-12-20T11:27:37.703Z,5.70
2022-12-20T11:30:34.294Z,5.67
2022-12-20T11:33:31.665Z,5.70
2022-12-20T11:36:30.689Z,4.50
2022-12-20T11:39:38.629Z,5.17
2022-12-20T11:42:51.959Z,4.60
2022-12-20T11:45:47.955Z,5.10
2022-12-20T11:48:55.374Z,5.00
2022-12-20T11:52:14.716Z,6.73
2022-12-20T11:55:27.441Z,5.07
2022-12-20T11:58:22.536Z,6.10
2022-12-20T12:01:17.177Z,6.07
2022-12-20T12:04:17.277Z,5.47
2022-12-20T12:07:22.071Z,5.80
2022-12-20T12:10:26.011Z,6.23
2022-12-20T12:13:25.215Z,5.73
2022-12-20T12:16:24.562Z,6.50
2022-12-20T12:19:13.631Z,7.77
2022-12-20T12:22:13.080Z,6.40
2022-12-20T12:25:04.636Z,6.93
2022-12-20T12:27:51.734Z,6.30
2022-12-20T12:30:44.063Z,6.63
2022-12-20T12:33:39.927Z,6.67
2022-12-20T12:36:47.936Z,6.03
2022-12-20T12:39:53.137Z,6.13
2022-12-20T12:43:08.819Z,6.77
2022-12-20T12:46:01.380Z,6.00
2022-12-20T12:49:04.142Z,6.27
2022-12-20T12:51:55.987Z,6.07
2022-12-20T12:54:44.159Z,6.63
2022-12-20T12:57:57.438Z,5.83
2022-12-20T13:00:52.686Z,5.53
2022-12-20T13:03:46.201Z,6.00
2022-12-20T13:06:36.423Z,5.77
2022-12-20T13:09:26.400Z,6.43
2022-12-20T13:12:38.238Z,6.63
2022-12-20T13:15:25.248Z,6.60
2022-12-20T13:18:12.270Z,6.60
2022-12-20T13:21:35.395Z,6.70
2022-12-20T13:24:50.743Z,6.53
2022-12-20T13:27:42.261Z,7.07
2022-12-20T13:30:29.617Z,6.60
2022-12-20T13:33:23.051Z,7.40
2022-12-20T13:36:10.021Z,7.17
2022-12-20T13:39:00.270Z,7.20
2022-12-20T13:41:51.248Z,7.07
2022-12-20T13:44:45.259Z,7.00
2022-12-20T13:47:37.016Z,7.70
2022-12-20T13:50:41.903Z,8.07
2022-12-20T13:53:29.107Z,8.90
2022-12-20T13:56:50.003Z,8.80
2022-12-20T13:59:37.095Z,8.87
2022-12-20T14:02:29.682Z,9.17
2022-12-20T14:05:21.361Z,8.43
2022-12-20T14:08:18.149Z,9.00
2022-12-20T14:11:12.248Z,8.50
2022-12-20T14:14:04.507Z,8.10
2022-12-20T14:16:51.613Z,8.87
2022-12-20T14:19:38.661Z,8.33
2022-12-20T14:22:25.757Z,7.57
2022-12-20T14:25:18.197Z,7.13
2022-12-20T14:28:06.443Z,7.23
2022-12-20T14:30:54.097Z,6.90
2022-12-20T14:33:42.382Z,6.80
2022-12-20T14:36:31.766Z,6.40
2022-12-20T14:39:32.578Z,8.00
2022-12-20T14:42:20.824Z,7.87
2022-12-20T14:45:10.561Z,7.50
2022-12-20T14:48:02.136Z,8.13
2022-12-20T14:50:53.972Z,7.20
2022-12-20T14:53:44.882Z,7.80
2022-12-20T14:56:33.527Z,8.00
2022-12-20T14:59:27.597Z,7.73
2022-12-20T15:02:40.208Z,8.63
2022-12-20T15:05:36.945Z,8.33
2022-12-20T15:08:28.470Z,8.30
2022-12-20T15:11:23.040Z,8.30
2022-12-20T15:14:27.473Z,8.87
2022-12-20T15:17:15.887Z,9.77
2022-12-20T15:20:03.125Z,9.23
2022-12-20T15:22:50.487Z,8.50
2022-12-20T15:25:42.952Z,9.27
2022-12-20T15:28:30.892Z,9.47
2022-12-20T15:31:22.982Z,8.43
2022-12-20T15:34:27.480Z,8.83
2022-12-20T15:37:18.702Z,8.77
2022-12-20T15:40:07.354Z,8.93
2022-12-20T15:42:54.409Z,9.33
2022-12-20T15:45:43.481Z,8.37
2022-12-20T15:48:30.713Z,8.57
2022-12-20T15:51:28.852Z,8.23
2022-12-20T15:54:45.019Z,8.53
2022-12-20T15:57:32.037Z,8.37
2022-12-20T16:00:19.429Z,8.90
2022-12-20T16:03:14.261Z,8.00
2022-12-20T16:06:01.385Z,8.80
2022-12-20T16:08:48.427Z,7.23
2022-12-20T16:11:36.067Z,7.43
2022-12-20T16:14:23.686Z,7.43
2022-12-20T16:17:15.014Z,6.53
2022-12-20T16:20:02.165Z,7.00
2022-12-20T16:22:49.105Z,6.77
2022-12-20T16:25:36.840Z,6.97
2022-12-20T16:28:23.772Z,7.50
2022-12-20T16:31:17.926Z,6.77
2022-12-20T16:34:10.698Z,7.40
2022-12-20T16:36:57.660Z,6.10
2022-12-20T16:39:44.767Z,6.37
2022-12-20T16:42:31.776Z,6.77
2022-12-20T16:45:39.206Z,6.40
2022-12-20T16:48:26.184Z,6.27
2022-12-20T16:51:27.323Z,6.67
2022-12-20T16:54:19.801Z,7.07
2022-12-20T16:57:07.199Z,6.70
2022-12-20T16:59:54.446Z,7.03
2022-12-20T17:02:41.512Z,7.10
2022-12-20T17:05:32.210Z,7.93
2022-12-20T17:11:30.653Z,7.57
2022-12-20T17:14:19.926Z,7.13
2022-12-20T17:17:07.849Z,8.10
2022-12-20T17:19:54.841Z,8.23
2022-12-20T17:25:53.756Z,8.13
2022-12-20T17:28:41.265Z,8.47
2022-12-20T17:31:34.475Z,8.27
2022-12-20T17:34:27.257Z,8.93
2022-12-20T17:37:14.281Z,9.10
2022-12-20T17:40:01.399Z,9.17
2022-12-20T17:42:49.208Z,13.07
2022-12-20T17:45:37.582Z,19.33
2022-12-20T17:48:32.160Z,12.17
2022-12-20T17:51:22.939Z,9.80
2022-12-20T17:54:18.511Z,11.03
2022-12-20T17:57:05.903Z,9.57
2022-12-20T17:59:53.009Z,9.97
2022-12-20T18:02:40.532Z,10.67
2022-12-20T18:05:27.643Z,10.43
2022-12-20T18:08:14.635Z,10.77
2022-12-20T18:11:01.680Z,9.30
2022-12-20T18:13:50.920Z,9.10
2022-12-20T18:16:41.448Z,9.97
2022-12-20T18:19:28.425Z,8.87
2022-12-20T18:22:15.549Z,8.17
2022-12-20T18:25:09.260Z,8.23
2022-12-20T18:27:56.373Z,8.33
2022-12-20T18:30:44.084Z,7.90
2022-12-20T18:33:31.312Z,8.93
2022-12-20T18:36:20.804Z,8.63
2022-12-20T18:39:11.686Z,8.40
2022-12-20T18:41:58.789Z,8.90
2022-12-20T18:44:45.724Z,9.67
2022-12-20T18:47:32.717Z,11.13
2022-12-20T18:50:19.704Z,12.27
2022-12-20T18:53:07.192Z,12.67
2022-12-20T18:55:54.177Z,11.33
2022-12-20T18:58:42.495Z,11.93
2022-12-20T19:01:32.474Z,12.60
2022-12-20T19:04:24.552Z,12.17
2022-12-20T19:07:12.926Z,12.77
2022-12-20T19:10:00.207Z,11.90
2022-12-20T19:12:47.216Z,12.87
2022-12-20T19:15:34.371Z,11.10
2022-12-20T19:18:21.785Z,11.83
2022-12-20T19:21:17.656Z,10.97
2022-12-20T19:24:07.115Z,11.50
2022-12-20T19:26:54.595Z,12.03
2022-12-20T19:29:41.931Z,11.87
2022-12-20T19:32:29.275Z,13.10
2022-12-20T19:35:45.611Z,14.13
2022-12-20T19:38:23.830Z,12.77
2022-12-20T19:41:11.625Z,14.60
2022-12-20T19:43:59.171Z,14.33
2022-12-20T19:46:46.583Z,15.27
2022-12-20T19:49:35.840Z,15.93
2022-12-20T19:52:28.252Z,14.33
2022-12-20T19:55:16.076Z,15.50
2022-12-20T19:58:03.683Z,16.17
2022-12-20T20:00:50.743Z,15.30
2022-12-20T20:03:38.691Z,14.67
2022-12-20T20:06:27.559Z,15.57
2022-12-20T20:09:15.698Z,16.13
2022-12-20T20:12:02.741Z,15.03
2022-12-20T20:14:49.787Z,15.07
2022-12-20T20:17:36.774Z,14.97
2022-12-20T20:20:23.928Z,14.60
2022-12-20T20:23:11.031Z,15.57
2022-12-20T20:25:58.087Z,15.13
2022-12-20T20:28:45.712Z,15.00
2022-12-20T20:31:33.186Z,16.40
2022-12-20T20:34:20.634Z,15.93
2022-12-20T20:37:08.455Z,15.70
2022-12-20T20:39:55.415Z,15.30
2022-12-20T20:42:42.410Z,14.70
2022-12-20T20:45:29.662Z,14.23
2022-12-20T20:48:17.438Z,14.93
2022-12-20T20:51:05.180Z,16.87
2022-12-20T20:53:52.167Z,16.93
2022-12-20T20:56:39.157Z,15.37
2022-12-20T20:59:26.136Z,15.97
2022-12-20T21:02:16.446Z,15.83
2022-12-20T21:08:10.846Z,15.17
2022-12-20T21:10:57.956Z,15.87
2022-12-20T21:13:45.011Z,15.63
2022-12-20T21:16:32.139Z,15.27
2022-12-20T21:19:19.162Z,15.73
2022-12-20T21:22:06.212Z,14.23
2022-12-20T21:24:53.238Z,14.40
2022-12-20T21:27:40.481Z,14.37
2022-12-20T21:30:27.495Z,14.43
2022-12-20T21:33:14.469Z,14.83
2022-12-20T21:36:04.791Z,14.77
2022-12-20T21:38:54.149Z,15.10
2022-12-20T21:41:41.087Z,14.90
2022-12-20T21:44:28.262Z,15.50
2022-12-20T21:47:15.262Z,15.80
2022-12-20T21:50:02.272Z,15.70
2022-12-20T21:52:49.209Z,17.93
2022-12-20T21:55:36.157Z,16.17
2022-12-20T21:58:26.648Z,16.03
2022-12-20T22:01:16.843Z,15.93
2022-12-20T22:04:05.895Z,16.13
2022-12-20T22:06:52.905Z,16.33
2022-12-20T22:09:39.836Z,16.73
2022-12-20T22:12:26.802Z,16.47
2022-12-20T22:15:13.800Z,17.07
2022-12-20T22:18:00.783Z,18.07
2022-12-20T22:20:47.892Z,18.47
2022-12-20T22:23:35.672Z,16.97
2022-12-20T22:26:25.870Z,16.90
2022-12-20T22:29:12.858Z,18.13
2022-12-20T22:32:00.025Z,17.37
2022-12-20T22:34:47.091Z,18.43
2022-12-20T22:37:34.014Z,18.80
2022-12-20T22:40:21.050Z,19.07
2022-12-20T22:43:08.206Z,19.17
2022-12-20T22:45:57.504Z,19.47
2022-12-20T22:48:45.523Z,20.63
2022-12-20T22:51:33.887Z,21.57
2022-12-20T22:54:21.058Z,20.57
2022-12-20T22:57:10.408Z,19.77
2022-12-20T22:59:58.924Z,21.83
2022-12-20T23:02:46.003Z,21.30
2022-12-20T23:05:33.990Z,21.07
2022-12-20T23:08:22.023Z,21.43
2022-12-20T23:11:42.727Z,21.03
2022-12-20T23:14:48.269Z,23.23
2022-12-20T23:17:35.201Z,21.50
2022-12-20T23:20:41.007Z,22.00
2022-12-20T23:23:28.031Z,21.90
2022-12-20T23:26:16.993Z,23.50
2022-12-20T23:29:05.275Z,22.50
2022-12-20T23:31:52.318Z,21.57
2022-12-20T23:34:39.252Z,23.40
2022-12-20T23:37:28.063Z,22.13
2022-12-20T23:40:16.879Z,21.30
2022-12-20T23:43:03.799Z,29.60
2022-12-20T23:45:50.926Z,22.30
2022-12-20T23:48:38.234Z,19.70
2022-12-20T23:51:25.228Z,23.03
2022-12-20T23:54:12.395Z,22.63
2022-12-20T23:56:59.427Z,29.40
2022-12-20T23:59:46.371Z,22.33
